createdAt,value
2024-04-14T00:00:02.306Z,16.5
2024-04-14T00:01:02.293Z,16.5
2024-04-14T00:02:02.260Z,16.5
2024-04-14T00:03:03.449Z,16.5
2024-04-14T00:04:06.689Z,16.4
2024-04-14T00:05:09.503Z,16.4
2024-04-14T00:06:12.228Z,16.4
2024-04-14T00:08:02.269Z,16.3
2024-04-14T00:09:02.264Z,16.3
2024-04-14T00:10:02.290Z,16.3
2024-04-14T00:11:02.332Z,16.3
2024-04-14T00:12:02.258Z,16.3
2024-04-14T00:13:02.270Z,16.3
2024-04-14T00:14:02.556Z,16.3
2024-04-14T00:15:02.255Z,16.3
2024-04-14T00:16:02.292Z,16.3
2024-04-14T00:17:02.248Z,16.3
2024-04-14T00:18:02.292Z,16.3
2024-04-14T00:19:02.622Z,16.3
2024-04-14T00:20:02.262Z,16.4
2024-04-14T00:21:02.267Z,16.4
2024-04-14T00:22:02.323Z,16.5
2024-04-14T00:23:02.254Z,16.5
2024-04-14T00:24:03.463Z,16.5
2024-04-14T00:25:06.490Z,16.6
2024-04-14T00:26:09.716Z,16.6
2024-04-14T00:27:12.312Z,16.6
2024-04-14T00:29:02.263Z,16.6
2024-04-14T00:30:02.257Z,16.6
2024-04-14T00:31:02.310Z,16.6
2024-04-14T00:32:02.259Z,16.6
2024-04-14T00:33:02.276Z,16.6
2024-04-14T00:34:02.300Z,16.6
2024-04-14T00:35:02.254Z,16.6
2024-04-14T00:36:02.262Z,16.6
2024-04-14T00:37:02.355Z,16.6
2024-04-14T00:38:02.241Z,16.6
2024-04-14T00:39:02.268Z,16.6
2024-04-14T00:40:02.334Z,16.5
2024-04-14T00:41:02.270Z,16.5
2024-04-14T00:42:02.328Z,16.5
2024-04-14T00:43:02.266Z,16.5
2024-04-14T00:44:02.248Z,16.4
2024-04-14T00:45:03.568Z,16.4
2024-04-14T00:46:06.597Z,16.4
2024-04-14T00:47:09.390Z,16.4
2024-04-14T00:49:02.366Z,16.3
2024-04-14T00:50:02.265Z,16.3
2024-04-14T00:51:02.271Z,16.2
2024-04-14T00:52:02.368Z,16.2
2024-04-14T00:53:02.274Z,16.2
2024-04-14T00:54:02.263Z,16.1
2024-04-14T00:55:02.314Z,16.1
2024-04-14T00:56:02.266Z,16
2024-04-14T00:57:02.269Z,16
2024-04-14T00:58:02.328Z,16
2024-04-14T01:00:02.327Z,15.9
2024-04-14T01:01:02.328Z,15.8
2024-04-14T01:02:04.783Z,15.8
2024-04-14T01:03:02.286Z,15.7
2024-04-14T01:04:02.306Z,15.7
2024-04-14T01:05:02.288Z,15.7
2024-04-14T01:06:03.636Z,15.7
2024-04-14T01:07:06.665Z,15.7
2024-04-14T01:08:09.519Z,15.6
2024-04-14T01:09:02.263Z,15.6
2024-04-14T01:10:02.294Z,15.5
2024-04-14T01:11:02.251Z,15.5
2024-04-14T01:12:02.261Z,15.4
2024-04-14T01:13:02.399Z,15.4
2024-04-14T01:14:02.259Z,15.3
2024-04-14T01:15:02.253Z,15.3
2024-04-14T01:16:02.298Z,15.2
2024-04-14T01:17:02.303Z,15.2
2024-04-14T01:18:02.325Z,15.1
2024-04-14T01:19:02.367Z,15.1
2024-04-14T01:20:02.264Z,15
2024-04-14T01:21:02.285Z,15
2024-04-14T01:22:02.259Z,14.9
2024-04-14T01:23:02.251Z,14.9
2024-04-14T01:24:02.254Z,14.8
2024-04-14T01:25:02.294Z,14.8
2024-04-14T01:26:02.253Z,14.8
2024-04-14T01:27:02.261Z,14.8
2024-04-14T01:28:02.698Z,14.8
2024-04-14T01:29:05.761Z,14.7
2024-04-14T01:30:08.744Z,14.7
2024-04-14T01:31:11.600Z,14.7
2024-04-14T01:32:02.646Z,14.7
2024-04-14T01:33:02.268Z,14.7
2024-04-14T01:34:02.311Z,14.6
2024-04-14T01:35:02.263Z,14.6
2024-04-14T01:36:02.256Z,14.6
2024-04-14T01:37:02.284Z,14.6
2024-04-14T01:38:08.728Z,14.5
2024-04-14T01:39:02.254Z,14.5
2024-04-14T01:40:02.303Z,14.5
2024-04-14T01:41:02.265Z,14.5
2024-04-14T01:42:02.251Z,14.4
2024-04-14T01:43:02.276Z,14.4
2024-04-14T01:44:02.267Z,14.3
2024-04-14T01:45:02.281Z,14.3
2024-04-14T01:46:02.311Z,14.3
2024-04-14T01:47:02.258Z,14.2
2024-04-14T01:48:02.294Z,14.2
2024-04-14T01:49:02.808Z,14.2
2024-04-14T01:50:06.004Z,14.2
2024-04-14T01:51:08.947Z,14.1
2024-04-14T01:52:11.714Z,14.1
2024-04-14T01:53:02.264Z,14.1
2024-04-14T01:54:02.296Z,14.1
2024-04-14T01:55:02.301Z,14
2024-04-14T01:56:02.247Z,14
2024-04-14T01:57:02.263Z,14
2024-04-14T01:58:02.343Z,13.9
2024-04-14T01:59:02.266Z,13.9
2024-04-14T02:00:02.294Z,13.9
2024-04-14T02:01:02.413Z,13.8
2024-04-14T02:02:02.255Z,13.8
2024-04-14T02:03:02.302Z,13.8
2024-04-14T02:04:02.367Z,13.8
2024-04-14T02:05:02.257Z,13.8
2024-04-14T02:06:02.246Z,13.8
2024-04-14T02:07:02.307Z,13.7
2024-04-14T02:08:02.263Z,13.7
2024-04-14T02:09:02.273Z,13.7
2024-04-14T02:10:02.959Z,13.7
2024-04-14T02:11:06.035Z,13.7
2024-04-14T02:12:08.939Z,13.7
2024-04-14T02:13:11.807Z,13.7
2024-04-14T02:14:02.277Z,13.6
2024-04-14T02:15:02.256Z,13.6
2024-04-14T02:16:02.333Z,13.6
2024-04-14T02:17:02.264Z,13.6
2024-04-14T02:18:02.331Z,13.6
2024-04-14T02:19:02.322Z,13.6
2024-04-14T02:21:02.235Z,13.5
2024-04-14T02:22:02.284Z,13.5
2024-04-14T02:23:02.271Z,13.5
2024-04-14T02:24:02.310Z,13.5
2024-04-14T02:25:02.346Z,13.4
2024-04-14T02:26:02.267Z,13.3
2024-04-14T02:27:02.259Z,13.3
2024-04-14T02:28:02.302Z,13.3
2024-04-14T02:29:02.260Z,13.3
2024-04-14T02:30:02.251Z,13.2
2024-04-14T02:31:02.928Z,13.2
2024-04-14T02:32:06.267Z,13.2
2024-04-14T02:33:09.108Z,13.2
2024-04-14T02:34:11.900Z,13.1
2024-04-14T02:36:02.263Z,13.1
2024-04-14T02:38:02.268Z,13.1
2024-04-14T02:39:02.251Z,13.1
2024-04-14T02:40:02.345Z,13.1
2024-04-14T02:41:02.257Z,13
2024-04-14T02:42:02.251Z,13
2024-04-14T02:43:02.282Z,13
2024-04-14T02:44:02.246Z,13
2024-04-14T02:45:02.417Z,12.9
2024-04-14T02:46:02.333Z,12.9
2024-04-14T02:47:02.253Z,12.9
2024-04-14T02:48:02.341Z,12.8
2024-04-14T02:49:02.291Z,12.8
2024-04-14T02:50:02.243Z,12.7
2024-04-14T02:51:02.274Z,12.7
2024-04-14T02:52:03.340Z,12.7
2024-04-14T02:53:06.148Z,12.7
2024-04-14T02:54:09.227Z,12.7
2024-04-14T02:55:12.022Z,12.6
2024-04-14T02:56:02.258Z,12.6
2024-04-14T02:57:02.255Z,12.5
2024-04-14T02:58:02.318Z,12.5
2024-04-14T02:59:02.250Z,12.5
2024-04-14T03:00:02.259Z,12.5
2024-04-14T03:01:02.432Z,12.4
2024-04-14T03:02:02.275Z,12.4
2024-04-14T03:03:02.443Z,12.4
2024-04-14T03:04:02.290Z,12.4
2024-04-14T03:05:02.308Z,12.3
2024-04-14T03:06:02.599Z,12.3
2024-04-14T03:07:02.297Z,12.2
2024-04-14T03:08:02.247Z,12.2
2024-04-14T03:09:02.286Z,12.2
2024-04-14T03:10:02.328Z,12.1
2024-04-14T03:11:02.284Z,12.1
2024-04-14T03:12:02.249Z,12
2024-04-14T03:13:03.141Z,12
2024-04-14T03:14:06.276Z,12
2024-04-14T03:15:09.255Z,12
2024-04-14T03:16:12.089Z,11.9
2024-04-14T03:17:02.254Z,11.9
2024-04-14T03:18:02.293Z,11.9
2024-04-14T03:19:02.283Z,11.9
2024-04-14T03:20:02.260Z,11.9
2024-04-14T03:21:02.274Z,11.9
2024-04-14T03:22:02.281Z,11.9
2024-04-14T03:23:02.273Z,11.9
2024-04-14T03:24:02.276Z,12
2024-04-14T03:25:02.251Z,12
2024-04-14T03:26:02.252Z,12
2024-04-14T03:27:02.643Z,12.1
2024-04-14T03:28:02.291Z,12.1
2024-04-14T03:29:02.262Z,12.1
2024-04-14T03:30:02.271Z,12.1
2024-04-14T03:31:02.446Z,12.2
2024-04-14T03:32:02.259Z,12.2
2024-04-14T03:33:02.293Z,12.2
2024-04-14T03:34:03.687Z,12.2
2024-04-14T03:35:06.348Z,12.2
2024-04-14T03:36:09.409Z,12.3
2024-04-14T03:37:12.152Z,12.3
2024-04-14T03:38:02.268Z,12.3
2024-04-14T03:39:02.288Z,12.3
2024-04-14T03:40:02.315Z,12.3
2024-04-14T03:41:02.294Z,12.3
2024-04-14T03:42:02.255Z,12.3
2024-04-14T03:43:02.273Z,12.4
2024-04-14T03:44:02.268Z,12.4
2024-04-14T03:46:02.294Z,12.4
2024-04-14T03:48:02.614Z,12.5
2024-04-14T03:49:02.282Z,12.6
2024-04-14T03:50:02.259Z,12.6
2024-04-14T03:52:02.293Z,12.6
2024-04-14T03:53:02.251Z,12.6
2024-04-14T03:54:02.254Z,12.6
2024-04-14T03:55:03.569Z,12.6
2024-04-14T03:56:06.423Z,12.6
2024-04-14T03:57:09.519Z,12.6
2024-04-14T03:58:12.319Z,12.6
2024-04-14T03:59:02.250Z,12.6
2024-04-14T04:00:02.279Z,12.7
2024-04-14T04:01:02.322Z,12.6
2024-04-14T04:03:02.253Z,12.7
2024-04-14T04:04:02.303Z,12.7
2024-04-14T04:05:02.262Z,12.7
2024-04-14T04:07:02.288Z,12.7
2024-04-14T04:08:04.552Z,12.7
2024-04-14T04:09:02.257Z,12.8
2024-04-14T04:10:02.264Z,12.8
2024-04-14T04:11:02.286Z,12.8
2024-04-14T04:12:02.304Z,12.8
2024-04-14T04:13:02.281Z,12.8
2024-04-14T04:14:02.276Z,12.9
2024-04-14T04:15:02.263Z,12.9
2024-04-14T04:16:03.803Z,12.9
2024-04-14T04:17:06.526Z,12.9
2024-04-14T04:18:09.473Z,12.9
2024-04-14T04:19:18.303Z,12.9
2024-04-14T04:20:02.383Z,12.9
2024-04-14T04:21:02.280Z,12.9
2024-04-14T04:23:02.269Z,12.9
2024-04-14T04:24:02.250Z,12.9
2024-04-14T04:25:02.306Z,12.9
2024-04-14T04:26:02.252Z,13
2024-04-14T04:27:02.253Z,13
2024-04-14T04:28:02.317Z,13
2024-04-14T04:29:02.257Z,13
2024-04-14T04:30:02.277Z,13
2024-04-14T04:31:02.333Z,13
2024-04-14T04:32:02.263Z,13
2024-04-14T04:33:02.302Z,13
2024-04-14T04:34:02.388Z,13
2024-04-14T04:35:02.264Z,13
2024-04-14T04:36:02.267Z,13
2024-04-14T04:37:02.284Z,13
2024-04-14T04:38:02.259Z,13
2024-04-14T04:39:05.175Z,13
2024-04-14T04:40:07.990Z,13
2024-04-14T04:41:10.705Z,13
2024-04-14T04:42:02.255Z,13
2024-04-14T04:43:02.304Z,13
2024-04-14T04:44:02.273Z,13
2024-04-14T04:45:02.253Z,13
2024-04-14T04:46:02.274Z,13
2024-04-14T04:47:02.264Z,13.1
2024-04-14T04:48:02.355Z,13
2024-04-14T04:49:02.479Z,13
2024-04-14T04:50:02.244Z,13.1
2024-04-14T04:51:02.260Z,13
2024-04-14T04:52:02.256Z,13.1
2024-04-14T04:53:02.252Z,13
2024-04-14T04:54:02.250Z,13
2024-04-14T04:55:02.289Z,13.1
2024-04-14T04:56:02.266Z,13.1
2024-04-14T04:57:02.268Z,13.1
2024-04-14T04:58:02.278Z,13
2024-04-14T04:59:02.250Z,13
2024-04-14T05:00:04.919Z,13
2024-04-14T05:01:07.946Z,13.1
2024-04-14T05:02:10.689Z,13
2024-04-14T05:03:02.351Z,13
2024-04-14T05:04:02.370Z,13
2024-04-14T05:05:02.459Z,13
2024-04-14T05:06:02.470Z,13
2024-04-14T05:07:02.461Z,13
2024-04-14T05:08:02.373Z,13
2024-04-14T05:09:02.472Z,13
2024-04-14T05:10:02.684Z,13
2024-04-14T05:11:02.320Z,12.9
2024-04-14T05:12:02.428Z,12.9
2024-04-14T05:13:02.503Z,12.9
2024-04-14T05:14:02.255Z,12.9
2024-04-14T05:15:02.300Z,12.8
2024-04-14T05:16:02.358Z,12.8
2024-04-14T05:17:02.276Z,12.8
2024-04-14T05:18:02.312Z,12.8
2024-04-14T05:19:02.335Z,12.8
2024-04-14T05:20:02.306Z,12.8
2024-04-14T05:21:05.086Z,12.8
2024-04-14T05:22:08.044Z,12.8
2024-04-14T05:23:10.765Z,12.8
2024-04-14T05:24:02.259Z,12.7
2024-04-14T05:25:02.320Z,12.8
2024-04-14T05:26:02.273Z,12.7
2024-04-14T05:27:02.269Z,12.7
2024-04-14T05:28:02.274Z,12.7
2024-04-14T05:29:02.248Z,12.8
2024-04-14T05:30:02.292Z,12.8
2024-04-14T05:31:02.748Z,12.8
2024-04-14T05:33:02.274Z,12.8
2024-04-14T05:34:02.329Z,12.9
2024-04-14T05:35:02.277Z,12.9
2024-04-14T05:36:02.254Z,12.9
2024-04-14T05:37:02.326Z,12.9
2024-04-14T05:38:02.254Z,12.9
2024-04-14T05:39:02.259Z,12.9
2024-04-14T05:40:02.444Z,12.9
2024-04-14T05:41:02.317Z,12.9
2024-04-14T05:42:05.146Z,12.9
2024-04-14T05:43:08.038Z,12.9
2024-04-14T05:44:10.928Z,12.9
2024-04-14T05:46:02.660Z,13
2024-04-14T05:47:02.569Z,13
2024-04-14T05:49:16.649Z,13
2024-04-14T05:50:02.589Z,13
2024-04-14T05:51:02.255Z,13
2024-04-14T05:52:02.320Z,13.1
2024-04-14T05:53:02.252Z,13.1
2024-04-14T05:54:02.264Z,13.1
2024-04-14T05:55:02.310Z,13.1
2024-04-14T05:56:02.255Z,13.1
2024-04-14T05:57:02.277Z,13.1
2024-04-14T05:58:02.373Z,13.1
2024-04-14T05:59:02.255Z,13.1
2024-04-14T06:00:02.341Z,13.1
2024-04-14T06:01:02.457Z,13.1
2024-04-14T06:02:02.284Z,13.2
2024-04-14T06:03:05.282Z,13.2
2024-04-14T06:04:08.272Z,13.2
2024-04-14T06:05:10.986Z,13.2
2024-04-14T06:06:02.251Z,13.2
2024-04-14T06:07:02.390Z,13.2
2024-04-14T06:08:02.260Z,13.3
2024-04-14T06:09:02.255Z,13.3
2024-04-14T06:10:02.278Z,13.3
2024-04-14T06:11:02.305Z,13.3
2024-04-14T06:12:02.252Z,13.3
2024-04-14T06:13:02.652Z,13.3
2024-04-14T06:14:02.252Z,13.3
2024-04-14T06:15:02.260Z,13.3
2024-04-14T06:16:02.289Z,13.3
2024-04-14T06:17:02.358Z,13.3
2024-04-14T06:18:02.330Z,13.3
2024-04-14T06:19:02.275Z,13.3
2024-04-14T06:20:02.250Z,13.4
2024-04-14T06:21:02.259Z,13.4
2024-04-14T06:22:02.255Z,13.4
2024-04-14T06:23:02.287Z,13.4
2024-04-14T06:24:05.210Z,13.4
2024-04-14T06:25:08.168Z,13.4
2024-04-14T06:26:11.092Z,13.4
2024-04-14T06:27:02.246Z,13.5
2024-04-14T06:28:02.260Z,13.5
2024-04-14T06:29:02.258Z,13.5
2024-04-14T06:30:02.256Z,13.5
2024-04-14T06:31:02.282Z,13.5
2024-04-14T06:32:02.238Z,13.5
2024-04-14T06:33:02.338Z,13.5
2024-04-14T06:34:02.269Z,13.5
2024-04-14T06:35:02.268Z,13.5
2024-04-14T06:36:02.256Z,13.5
2024-04-14T06:37:02.283Z,13.5
2024-04-14T06:38:02.257Z,13.5
2024-04-14T06:39:02.252Z,13.5
2024-04-14T06:40:02.255Z,13.5
2024-04-14T06:41:02.250Z,13.5
2024-04-14T06:42:02.242Z,13.6
2024-04-14T06:43:02.352Z,13.5
2024-04-14T06:44:02.269Z,13.5
2024-04-14T06:45:05.364Z,13.5
2024-04-14T06:46:08.391Z,13.6
2024-04-14T06:47:11.146Z,13.6
2024-04-14T06:48:02.273Z,13.5
2024-04-14T06:49:02.288Z,13.5
2024-04-14T06:50:02.253Z,13.5
2024-04-14T06:51:02.264Z,13.5
2024-04-14T06:52:02.261Z,13.5
2024-04-14T06:53:02.263Z,13.5
2024-04-14T06:54:02.270Z,13.4
2024-04-14T06:55:02.293Z,13.5
2024-04-14T06:56:02.280Z,13.4
2024-04-14T06:57:02.264Z,13.5
2024-04-14T06:58:02.324Z,13.5
2024-04-14T06:59:02.273Z,13.5
2024-04-14T07:00:02.250Z,13.5
2024-04-14T07:01:02.291Z,13.5
2024-04-14T07:02:02.348Z,13.6
2024-04-14T07:03:02.267Z,13.6
2024-04-14T07:04:02.325Z,13.7
2024-04-14T07:05:02.362Z,13.7
2024-04-14T07:06:05.446Z,13.7
2024-04-14T07:07:08.496Z,13.7
2024-04-14T07:08:11.320Z,13.8
2024-04-14T07:09:02.458Z,13.8
2024-04-14T07:10:02.299Z,13.8
2024-04-14T07:11:02.260Z,13.9
2024-04-14T07:12:02.258Z,13.9
2024-04-14T07:13:02.284Z,13.9
2024-04-14T07:14:02.472Z,13.9
2024-04-14T07:15:02.802Z,13.9
2024-04-14T07:16:02.302Z,13.8
2024-04-14T07:17:02.586Z,13.8
2024-04-14T07:19:02.287Z,13.9
2024-04-14T07:20:02.252Z,13.9
2024-04-14T07:22:02.326Z,13.9
2024-04-14T07:23:02.258Z,13.9
2024-04-14T07:24:02.414Z,14
2024-04-14T07:25:02.325Z,14
2024-04-14T07:26:04.427Z,14
2024-04-14T07:27:05.516Z,14
2024-04-14T07:28:08.713Z,14
2024-04-14T07:29:11.432Z,14.1
2024-04-14T07:30:02.528Z,14.1
2024-04-14T07:31:02.279Z,14.1
2024-04-14T07:32:02.265Z,14.1
2024-04-14T07:33:02.367Z,14.2
2024-04-14T07:34:02.329Z,14.2
2024-04-14T07:35:02.266Z,14.3
2024-04-14T07:36:02.245Z,14.3
2024-04-14T07:37:02.293Z,14.4
2024-04-14T07:38:02.268Z,14.4
2024-04-14T07:39:02.281Z,14.5
2024-04-14T07:40:02.310Z,14.5
2024-04-14T07:41:02.253Z,14.6
2024-04-14T07:42:02.268Z,14.6
2024-04-14T07:43:02.330Z,14.7
2024-04-14T07:44:02.275Z,14.7
2024-04-14T07:45:02.254Z,14.7
2024-04-14T07:46:02.318Z,14.7
2024-04-14T07:47:02.665Z,14.7
2024-04-14T07:48:05.798Z,14.8
2024-04-14T07:49:08.789Z,14.8
2024-04-14T07:50:11.827Z,14.8
2024-04-14T07:52:02.312Z,14.8
2024-04-14T07:53:02.265Z,14.8
2024-04-14T07:54:02.248Z,14.8
2024-04-14T07:55:02.316Z,14.8
2024-04-14T07:56:02.256Z,14.8
2024-04-14T07:57:02.248Z,14.8
2024-04-14T07:58:02.275Z,14.8
2024-04-14T07:59:02.275Z,14.9
2024-04-14T08:00:02.253Z,14.9
2024-04-14T08:01:02.320Z,15
2024-04-14T08:02:02.282Z,15
2024-04-14T08:03:02.404Z,15.1
2024-04-14T08:04:02.650Z,15.2
2024-04-14T08:06:02.266Z,15.3
2024-04-14T08:07:02.288Z,15.3
2024-04-14T08:08:03.120Z,15.3
2024-04-14T08:09:05.811Z,15.3
2024-04-14T08:10:08.871Z,15.4
2024-04-14T08:11:11.544Z,15.5
2024-04-14T08:12:02.681Z,15.5
2024-04-14T08:13:02.312Z,15.5
2024-04-14T08:14:02.282Z,15.6
2024-04-14T08:15:02.278Z,15.6
2024-04-14T08:16:02.408Z,15.6
2024-04-14T08:17:02.278Z,15.6
2024-04-14T08:18:02.304Z,15.7
2024-04-14T08:19:02.333Z,15.7
2024-04-14T08:20:02.244Z,15.7
2024-04-14T08:21:02.269Z,15.7
2024-04-14T08:22:02.289Z,15.8
2024-04-14T08:23:02.256Z,15.8
2024-04-14T08:24:02.238Z,15.8
2024-04-14T08:25:02.357Z,15.9
2024-04-14T08:26:02.257Z,16
2024-04-14T08:27:02.269Z,16.1
2024-04-14T08:28:02.314Z,16.1
2024-04-14T08:29:02.271Z,16.2
2024-04-14T08:30:02.258Z,16.2
2024-04-14T08:31:04.132Z,16.2
2024-04-14T08:32:07.020Z,16.2
2024-04-14T08:33:10.088Z,16.1
2024-04-14T08:34:04.410Z,16.1
2024-04-14T08:35:02.261Z,16.1
2024-04-14T08:36:02.269Z,16.1
2024-04-14T08:37:02.363Z,16.1
2024-04-14T08:38:02.256Z,16.1
2024-04-14T08:39:02.265Z,16
2024-04-14T08:41:02.281Z,16.1
2024-04-14T08:42:02.334Z,16
2024-04-14T08:43:02.363Z,16
2024-04-14T08:44:02.274Z,15.9
2024-04-14T08:45:02.268Z,15.8
2024-04-14T08:46:02.363Z,15.8
2024-04-14T08:47:02.313Z,15.8
2024-04-14T08:48:02.375Z,15.8
2024-04-14T08:49:02.273Z,15.8
2024-04-14T08:50:02.279Z,15.8
2024-04-14T08:52:04.058Z,15.9
2024-04-14T08:53:07.115Z,15.9
2024-04-14T08:54:09.885Z,16
2024-04-14T08:55:02.358Z,16
2024-04-14T08:56:02.248Z,16.1
2024-04-14T08:57:02.266Z,16.1
2024-04-14T08:58:02.275Z,16.1
2024-04-14T08:59:02.270Z,16.1
2024-04-14T09:00:02.257Z,16.1
2024-04-14T09:01:02.336Z,16.1
2024-04-14T09:03:02.256Z,16.2
2024-04-14T09:04:02.316Z,16.2
2024-04-14T09:05:02.271Z,16.2
2024-04-14T09:07:02.336Z,16.2
2024-04-14T09:08:02.290Z,16.2
2024-04-14T09:09:02.272Z,16.3
2024-04-14T09:10:02.359Z,16.3
2024-04-14T09:11:02.275Z,16.4
2024-04-14T09:12:02.469Z,16.4
2024-04-14T09:13:06.262Z,16.4
2024-04-14T09:14:07.176Z,16.5
2024-04-14T09:15:09.959Z,16.5
2024-04-14T09:17:02.301Z,16.6
2024-04-14T09:18:02.611Z,16.6
2024-04-14T09:19:02.320Z,16.6
2024-04-14T09:20:02.254Z,16.6
2024-04-14T09:21:02.291Z,16.6
2024-04-14T09:22:02.347Z,16.5
2024-04-14T09:23:02.266Z,16.5
2024-04-14T09:24:02.248Z,16.5
2024-04-14T09:25:02.303Z,16.4
2024-04-14T09:26:02.256Z,16.4
2024-04-14T09:27:02.266Z,16.4
2024-04-14T09:28:02.303Z,16.4
2024-04-14T09:29:02.266Z,16.4
2024-04-14T09:30:02.292Z,16.4
2024-04-14T09:31:02.386Z,16.4
2024-04-14T09:32:04.483Z,16.4
2024-04-14T09:34:04.310Z,16.5
2024-04-14T09:35:07.177Z,16.4
2024-04-14T09:36:10.074Z,16.5
2024-04-14T09:37:02.287Z,16.5
2024-04-14T09:38:02.446Z,16.4
2024-04-14T09:39:02.263Z,16.4
2024-04-14T09:40:02.272Z,16.4
2024-04-14T09:41:02.270Z,16.5
2024-04-14T09:42:02.279Z,16.4
2024-04-14T09:43:02.369Z,16.4
2024-04-14T09:45:02.262Z,16.4
2024-04-14T09:46:02.310Z,16.3
2024-04-14T09:47:02.309Z,16.3
2024-04-14T09:48:02.282Z,16.2
2024-04-14T09:49:02.455Z,16.2
2024-04-14T09:50:02.269Z,16.2
2024-04-14T09:51:02.368Z,16.2
2024-04-14T09:52:02.432Z,16.3
2024-04-14T09:53:02.257Z,16.3
2024-04-14T09:54:02.257Z,16.3
2024-04-14T09:55:04.474Z,16.3
2024-04-14T09:56:07.452Z,16.2
2024-04-14T09:57:10.224Z,16.2
2024-04-14T09:58:02.298Z,16.2
2024-04-14T09:59:02.239Z,16.1
2024-04-14T10:00:02.251Z,16.1
2024-04-14T10:01:02.376Z,16.1
2024-04-14T10:02:02.281Z,16.1
2024-04-14T10:03:02.292Z,16.1
2024-04-14T10:04:02.435Z,16.2
2024-04-14T10:05:02.270Z,16.2
2024-04-14T10:06:02.243Z,16.3
2024-04-14T10:07:02.303Z,16.4
2024-04-14T10:08:02.246Z,16.5
2024-04-14T10:09:02.262Z,16.6
2024-04-14T10:10:02.354Z,16.8
2024-04-14T10:11:02.298Z,16.9
2024-04-14T10:12:02.697Z,17
2024-04-14T10:13:02.315Z,17.2
2024-04-14T10:14:02.253Z,17.2
2024-04-14T10:15:03.554Z,17.3
2024-04-14T10:16:04.841Z,17.3
2024-04-14T10:17:07.321Z,17.3
2024-04-14T10:18:10.304Z,17.3
2024-04-14T10:19:02.347Z,17.4
2024-04-14T10:20:02.249Z,17.4
2024-04-14T10:21:02.274Z,17.5
2024-04-14T10:22:02.356Z,17.5
2024-04-14T10:23:02.254Z,17.6
2024-04-14T10:24:02.251Z,17.6
2024-04-14T10:25:02.448Z,17.7
2024-04-14T10:26:02.265Z,17.6
2024-04-14T10:27:02.241Z,17.6
2024-04-14T10:28:02.291Z,17.6
2024-04-14T10:29:02.267Z,17.6
2024-04-14T10:30:02.263Z,17.6
2024-04-14T10:31:02.531Z,17.6
2024-04-14T10:32:02.462Z,17.6
2024-04-14T10:33:02.313Z,17.5
2024-04-14T10:34:02.315Z,17.5
2024-04-14T10:35:02.273Z,17.4
2024-04-14T10:36:02.258Z,17.4
2024-04-14T10:37:04.719Z,17.4
2024-04-14T10:38:07.466Z,17.5
2024-04-14T10:39:10.526Z,17.4
2024-04-14T10:40:02.274Z,17.4
2024-04-14T10:41:02.285Z,17.3
2024-04-14T10:42:02.504Z,17.3
2024-04-14T10:43:02.334Z,17.2
2024-04-14T10:44:02.258Z,17
2024-04-14T10:45:02.274Z,16.9
2024-04-14T10:46:02.524Z,16.9
2024-04-14T10:47:02.282Z,16.9
2024-04-14T10:49:02.335Z,17
2024-04-14T10:50:02.245Z,17
2024-04-14T10:51:02.301Z,17.2
2024-04-14T10:52:02.297Z,17.3
2024-04-14T10:53:02.256Z,17.4
2024-04-14T10:54:02.592Z,17.4
2024-04-14T10:55:02.281Z,17.5
2024-04-14T10:56:02.272Z,17.6
2024-04-14T10:57:02.258Z,17.6
2024-04-14T10:58:04.901Z,17.6
2024-04-14T10:59:07.915Z,17.7
2024-04-14T11:00:10.316Z,17.8
2024-04-14T11:01:02.280Z,17.9
2024-04-14T11:02:02.272Z,18
2024-04-14T11:03:02.318Z,18
2024-04-14T11:04:02.346Z,18.1
2024-04-14T11:05:02.259Z,18.1
2024-04-14T11:06:02.393Z,18.1
2024-04-14T11:07:02.819Z,18.1
2024-04-14T11:08:02.255Z,18.1
2024-04-14T11:09:02.264Z,18.1
2024-04-14T11:10:02.423Z,18.1
2024-04-14T11:12:02.400Z,18.1
2024-04-14T11:13:02.804Z,18.1
2024-04-14T11:15:02.486Z,18.2
2024-04-14T11:16:02.305Z,18.2
2024-04-14T11:17:02.282Z,18.3
2024-04-14T11:18:02.306Z,18.3
2024-04-14T11:20:02.374Z,18.3
2024-04-14T11:21:05.216Z,18.3
2024-04-14T11:22:08.764Z,18.4
2024-04-14T11:23:11.610Z,18.4
2024-04-14T11:24:02.640Z,18.5
2024-04-14T11:25:02.403Z,18.5
2024-04-14T11:26:02.260Z,18.7
2024-04-14T11:27:02.278Z,18.5
2024-04-14T11:28:02.295Z,18.7
2024-04-14T11:29:02.261Z,18.7
2024-04-14T11:30:02.315Z,18.7
2024-04-14T11:31:02.324Z,18.7
2024-04-14T11:32:02.275Z,18.8
2024-04-14T11:33:02.282Z,18.8
2024-04-14T11:34:02.361Z,18.9
2024-04-14T11:35:02.244Z,18.9
2024-04-14T11:36:02.375Z,18.9
2024-04-14T11:37:02.366Z,18.9
2024-04-14T11:38:02.274Z,18.8
2024-04-14T11:39:02.258Z,18.8
2024-04-14T11:40:02.455Z,18.8
2024-04-14T11:41:02.891Z,18.8
2024-04-14T11:42:05.887Z,18.8
2024-04-14T11:43:08.975Z,18.8
2024-04-14T11:44:11.812Z,18.8
2024-04-14T11:45:02.278Z,18.8
2024-04-14T11:46:02.291Z,18.8
2024-04-14T11:47:02.288Z,18.8
2024-04-14T11:48:02.279Z,18.8
2024-04-14T11:49:02.334Z,18.7
2024-04-14T11:50:02.251Z,18.7
2024-04-14T11:51:02.276Z,18.5
2024-04-14T11:52:02.328Z,18.5
2024-04-14T11:53:02.266Z,18.5
2024-04-14T11:55:02.404Z,18.4
2024-04-14T11:56:02.289Z,18.4
2024-04-14T11:57:02.258Z,18.4
2024-04-14T11:58:02.333Z,18.3
2024-04-14T11:59:02.260Z,18.3
2024-04-14T12:00:02.260Z,18.3
2024-04-14T12:01:02.411Z,18.3
2024-04-14T12:02:02.996Z,18.3
2024-04-14T12:03:06.036Z,18.3
2024-04-14T12:04:09.090Z,18.3
2024-04-14T12:05:11.869Z,18.2
2024-04-14T12:07:02.350Z,18.2
2024-04-14T12:08:02.259Z,18.2
2024-04-14T12:09:02.262Z,18.1
2024-04-14T12:10:02.344Z,18.1
2024-04-14T12:11:02.291Z,18
2024-04-14T12:12:02.252Z,17.9
2024-04-14T12:13:02.335Z,17.8
2024-04-14T12:14:02.259Z,17.8
2024-04-14T12:15:02.247Z,17.7
2024-04-14T12:16:02.476Z,17.7
2024-04-14T12:17:02.304Z,17.6
2024-04-14T12:18:02.310Z,17.6
2024-04-14T12:19:02.315Z,17.5
2024-04-14T12:20:02.259Z,17.5
2024-04-14T12:21:02.258Z,17.5
2024-04-14T12:22:02.361Z,17.4
2024-04-14T12:23:02.950Z,17.4
2024-04-14T12:24:09.936Z,17.4
2024-04-14T12:25:09.139Z,17.4
2024-04-14T12:26:11.874Z,17.3
2024-04-14T12:27:02.264Z,17.2
2024-04-14T12:28:02.326Z,17.2
2024-04-14T12:29:02.271Z,17.2
2024-04-14T12:30:02.256Z,17.2
2024-04-14T12:31:02.307Z,17.2
2024-04-14T12:32:02.262Z,17.2
2024-04-14T12:33:02.332Z,17.2
2024-04-14T12:34:02.337Z,17.3
2024-04-14T12:35:02.608Z,17.3
2024-04-14T12:36:02.259Z,17.3
2024-04-14T12:37:02.840Z,17.4
2024-04-14T12:39:02.345Z,17.5
2024-04-14T12:40:02.403Z,17.5
2024-04-14T12:41:02.242Z,17.5
2024-04-14T12:42:02.260Z,17.5
2024-04-14T12:43:02.419Z,17.5
2024-04-14T12:44:03.011Z,17.5
2024-04-14T12:45:06.589Z,17.4
2024-04-14T12:46:09.159Z,17.3
2024-04-14T12:47:11.965Z,17.3
2024-04-14T12:48:02.293Z,17.3
2024-04-14T12:49:02.286Z,17.2
2024-04-14T12:50:02.287Z,17.2
2024-04-14T12:51:02.267Z,17.2
2024-04-14T12:52:02.271Z,17.2
2024-04-14T12:53:02.248Z,17.2
2024-04-14T12:54:02.271Z,17.2
2024-04-14T12:55:02.332Z,17.2
2024-04-14T12:56:02.258Z,17.2
2024-04-14T12:57:02.279Z,17.3
2024-04-14T12:58:02.511Z,17.3
2024-04-14T12:59:02.267Z,17.3
2024-04-14T13:00:02.296Z,17.4
2024-04-14T13:02:02.282Z,17.4
2024-04-14T13:03:02.307Z,17.4
2024-04-14T13:04:02.410Z,17.3
2024-04-14T13:05:03.230Z,17.3
2024-04-14T13:06:07.469Z,17.3
2024-04-14T13:07:09.327Z,17.3
2024-04-14T13:08:12.081Z,17.2
2024-04-14T13:10:02.337Z,17
2024-04-14T13:11:02.289Z,17
2024-04-14T13:12:02.268Z,17
2024-04-14T13:13:02.366Z,16.9
2024-04-14T13:14:02.237Z,16.9
2024-04-14T13:15:02.254Z,16.9
2024-04-14T13:16:02.496Z,16.9
2024-04-14T13:17:02.575Z,16.9
2024-04-14T13:18:04.585Z,16.9
2024-04-14T13:19:02.632Z,16.9
2024-04-14T13:20:02.276Z,16.9
2024-04-14T13:21:02.276Z,16.9
2024-04-14T13:22:02.328Z,16.9
2024-04-14T13:23:02.277Z,16.9
2024-04-14T13:25:02.333Z,16.9
2024-04-14T13:26:03.219Z,16.9
2024-04-14T13:27:06.315Z,16.9
2024-04-14T13:28:09.704Z,16.8
2024-04-14T13:29:12.192Z,16.8
2024-04-14T13:30:02.265Z,16.8
2024-04-14T13:31:02.318Z,16.8
2024-04-14T13:32:02.261Z,16.7
2024-04-14T13:33:02.317Z,16.7
2024-04-14T13:34:02.470Z,16.7
2024-04-14T13:35:02.276Z,16.7
2024-04-14T13:37:02.282Z,16.6
2024-04-14T13:38:02.268Z,16.5
2024-04-14T13:39:02.267Z,16.4
2024-04-14T13:40:02.373Z,16.4
2024-04-14T13:41:02.286Z,16.3
2024-04-14T13:42:02.259Z,16.3
2024-04-14T13:44:02.240Z,16.1
2024-04-14T13:45:02.291Z,16.2
2024-04-14T13:46:02.413Z,16.2
2024-04-14T13:47:03.344Z,16.2
2024-04-14T13:48:06.545Z,16.1
2024-04-14T13:49:09.443Z,16.1
2024-04-14T13:50:12.187Z,16.1
2024-04-14T13:51:02.266Z,16.1
2024-04-14T13:52:02.318Z,16.1
2024-04-14T13:53:02.243Z,16.1
2024-04-14T13:54:02.259Z,16.1
2024-04-14T13:55:02.335Z,16
2024-04-14T13:56:02.250Z,16.1
2024-04-14T13:57:02.264Z,16
2024-04-14T13:59:02.274Z,16
2024-04-14T14:00:02.292Z,16
2024-04-14T14:01:02.377Z,15.9
2024-04-14T14:02:02.299Z,15.9
2024-04-14T14:03:02.246Z,15.8
2024-04-14T14:04:02.302Z,15.8